Menifee, California
Current Conditions -  °F | °C
As of 1:35 PM on Friday 19 Dec 2014 (Local Time) from KF70 Reporting Station
Clear Clear  
Wind Chill: 63°   Ceiling: Unl
Heat Index: 63°   Visibility: 10mi
Dew Point: 37°   Wind: 3mph
Humidity: 39%   Direction: 190°S
Pressure: 30.17"   Gusts: NA
Location:  33.66°N, 117.18°W
Report Text: KF70 192135Z AUTO 19003KT 10SM CLR 17/03 A3017 RMK AO1
Loading
Personal Weather Stations






























Interactive Weather Map New forecast layout! Learn more

10-Day Weather Forecast

Advertisements
Track Severe Weather on mobile